Airfield :
LOGIN :

Register | Disclaimer

   EN    FR    IT 

 










Legend :    VFR   Marginal VFR   IFR   Intensive IFR   Very Intensive IFR
Visi :
Ceiling :
>= 8 km
>= 3000ft
5 to 8 km
1000 to 3000 ft
1500m to 5 km
500 to 1000 ft
800 to 1500m
200 to 500 ft
< 800m
< 200 ft
Symbols :   Thunderstorms  Fog  Heavy snow  Heavy precipitations  Wind > 20 kt
SIGMETs :     Misc.  Thunderstorms  Icing  Turbulence  Mountain Waves  Volcanic Ashes






- Airport Elevation : 622 ft
- IATA code : BRS


EGGD - Bristol Int.

CURRENT METAR :
  • 070950Z AUTO 27008KT 220V010 9999 SCT025 15/07 Q1009

EXPIRED METARs :
  • 070920Z AUTO 29008KT 230V320 9999 NCD 15/07 Q1009
  • 070850Z AUTO 26006KT 220V290 9999 NCD 14/08 Q1009
  • 070820Z AUTO 28007KT 9999 NCD 13/08 Q1008
  • 070750Z AUTO 30006KT 250V340 9999 NCD 12/08 Q1008
  • 070720Z AUTO 24006KT 210V280 9999 NCD 11/09 Q1008

TAF TAF EGGD
Valid from the 07 at 06:00 until the 08 at 06:00 UTC


070459Z 0706/0806 27005KT 9999 FEW025 SCT040
PROB30 0706/0707 9000
TEMPO 0715/0724 7000 SHRA
PROB30
TEMPO 0715/0724 3000 +SHRA BKN014CB
ATIS : +44 1275 473 666



MET'MAP, your aeronautical weather chart ! - Copyright ORBIFLY December 2007 - Disclaimer

ORBIFLY MET'MAP TEAM :

Programming & Development : Alexandra Zaïnal
Concept & original design : Baudouin d'Aumeries
Assistance for programming : Marc-Olivier Méhu
Technical & hardware support : Manuel Goepfert

Contact : metmap@orbifly.com




SOURCES & CREDITS :

   NOAA